Time;durP1;ratioP1;P1;durP2;ratioP2;P2;SDS_P1;SDS_P2;PMS_P1;PMS_P2;Temp;Humidity;BMP_temperature;BMP_pressure;BME280_temperature;BME280_humidity;BME280_pressure;Samples;Min_cycle;Max_cycle;Signal;HPM_P1;HPM_P2
2022/06/01 00:00:41;;;;;;;1.60;1.50;;;6.70;99.90;;;;;;5033736;28;20025;-84
2022/06/01 00:03:07;;;;;;;1.27;1.20;;;6.60;99.90;;;;;;5048728;22;20041;-83
2022/06/01 00:05:33;;;;;;;1.67;1.52;;;6.60;99.90;;;;;;5015643;28;20030;-83
2022/06/01 00:07:59;;;;;;;1.88;1.77;;;6.40;99.90;;;;;;5014615;28;20510;-83
2022/06/01 00:10:26;;;;;;;1.90;1.70;;;6.30;99.90;;;;;;5014105;28;20045;-83
2022/06/01 00:12:54;;;;;;;3.92;1.30;;;6.20;99.90;;;;;;5013636;28;20018;-83
2022/06/01 00:15:20;;;;;;;1.40;1.30;;;6.20;99.90;;;;;;5017102;28;20030;-83
2022/06/01 00:17:46;;;;;;;1.77;1.50;;;6.10;99.90;;;;;;5014008;28;20029;-83
2022/06/01 00:20:14;;;;;;;1.42;1.30;;;6.20;99.90;;;;;;5013690;28;20479;-83
2022/06/01 00:22:41;;;;;;;2.10;1.67;;;6.10;99.90;;;;;;5028134;28;20029;-83
2022/06/01 00:25:08;;;;;;;1.60;1.50;;;6.10;99.90;;;;;;5013602;28;20168;-83
2022/06/01 00:27:35;;;;;;;3.58;1.80;;;6.10;99.90;;;;;;5020771;28;20022;-83
2022/06/01 00:30:01;;;;;;;1.98;1.77;;;6.00;99.90;;;;;;5027952;28;20107;-83
2022/06/01 00:32:27;;;;;;;2.15;1.63;;;6.00;99.90;;;;;;5013669;28;20040;-83
2022/06/01 00:34:53;;;;;;;2.35;1.40;;;6.00;99.90;;;;;;5006440;28;20018;-83
2022/06/01 00:37:20;;;;;;;1.70;1.60;;;5.90;99.90;;;;;;5013244;28;20076;-83
2022/06/01 00:39:47;;;;;;;1.63;1.33;;;5.90;99.90;;;;;;5027552;28;20483;-82
2022/06/01 00:42:15;;;;;;;1.55;1.45;;;5.80;99.90;;;;;;5012930;28;20010;-82
2022/06/01 00:44:41;;;;;;;1.30;1.20;;;5.80;99.90;;;;;;5016655;28;20022;-83
2022/06/01 00:47:08;;;;;;;1.38;1.27;;;5.70;99.90;;;;;;5013672;28;20101;-83
2022/06/01 00:49:35;;;;;;;1.40;1.30;;;5.70;99.90;;;;;;5027636;28;20076;-83
2022/06/01 00:52:02;;;;;;;1.60;1.50;;;5.70;99.90;;;;;;5013025;28;20029;-83
2022/06/01 00:54:28;;;;;;;1.38;1.27;;;5.50;99.90;;;;;;5012193;28;20100;-83
2022/06/01 00:56:58;;;;;;;1.40;1.30;;;5.50;99.90;;;;;;5013071;28;20021;-83
2022/06/01 00:59:29;;;;;;;1.10;1.10;;;5.50;99.90;;;;;;5020475;28;20101;-83
2022/06/01 01:01:56;;;;;;;1.27;1.15;;;5.40;99.90;;;;;;5033165;22;19997;-83
2022/06/01 01:04:23;;;;;;;1.60;1.50;;;5.40;99.90;;;;;;5021439;28;20109;-83
2022/06/01 01:06:48;;;;;;;1.00;0.95;;;5.40;99.90;;;;;;5013239;28;20357;-83
2022/06/01 01:09:15;;;;;;;1.55;1.42;;;5.30;99.90;;;;;;5013534;28;20417;-84
2022/06/01 01:11:52;;;;;;;1.55;1.45;;;5.30;99.90;;;;;;5013144;28;20439;-84
2022/06/01 01:14:20;;;;;;;1.60;1.50;;;5.30;99.90;;;;;;5006636;28;20040;-83
2022/06/01 01:16:49;;;;;;;1.67;1.52;;;5.40;99.90;;;;;;5011169;28;20018;-84
2022/06/01 01:19:35;;;;;;;1.10;1.10;;;5.40;99.90;;;;;;5013041;28;20018;-84
2022/06/01 01:22:15;;;;;;;1.40;1.30;;;5.30;99.90;;;;;;4996211;28;20029;-83
2022/06/01 01:25:04;;;;;;;1.48;1.38;;;5.30;99.90;;;;;;5013390;28;20109;-83
2022/06/01 01:27:30;;;;;;;1.98;1.88;;;5.30;99.90;;;;;;5013363;28;20018;-82
2022/06/01 01:29:56;;;;;;;1.55;1.42;;;5.60;99.90;;;;;;5013128;28;20060;-83
2022/06/01 01:32:21;;;;;;;2.03;1.75;;;5.70;99.90;;;;;;5012921;28;20463;-83
2022/06/01 01:34:47;;;;;;;1.70;1.48;;;5.80;99.90;;;;;;5010204;28;20049;-83
2022/06/01 01:37:21;;;;;;;1.55;1.45;;;5.80;99.90;;;;;;5012920;28;20018;-82
2022/06/01 01:39:47;;;;;;;2.58;1.58;;;5.70;99.90;;;;;;5012916;28;20050;-83
2022/06/01 01:42:13;;;;;;;1.80;1.45;;;5.60;99.90;;;;;;5012501;28;20022;-83
2022/06/01 01:45:18;;;;;;;1.60;1.50;;;5.50;99.90;;;;;;5012907;28;20014;-83
2022/06/01 01:47:43;;;;;;;2.10;1.55;;;5.40;99.90;;;;;;4970847;28;20027;-83
2022/06/01 01:50:10;;;;;;;1.77;1.63;;;5.30;99.90;;;;;;4970806;28;20088;-83
2022/06/01 01:52:36;;;;;;;2.75;1.55;;;5.30;99.90;;;;;;4989752;28;20042;-83
2022/06/01 01:55:06;;;;;;;1.85;1.63;;;5.20;99.90;;;;;;5012564;28;20037;-83
2022/06/01 01:57:34;;;;;;;1.85;1.38;;;5.10;99.90;;;;;;5010199;28;20021;-83
2022/06/01 02:00:09;;;;;;;2.45;1.33;;;5.00;99.90;;;;;;5012394;28;20026;-83
2022/06/01 02:03:04;;;;;;;1.73;1.45;;;5.00;99.90;;;;;;5036498;22;20068;-83
2022/06/01 02:08:38;;;;;;;1.50;1.40;;;5.10;99.90;;;;;;5012579;28;20574;-83
2022/06/01 02:14:03;;;;;;;1.80;1.42;;;4.90;99.90;;;;;;5015135;28;20092;-83
2022/06/01 12:48:23;;;;;;;1.88;0.80;;;33.50;35.30;;;;;;5076092;28;20434;-89
2022/06/01 12:51:02;;;;;;;1.63;0.90;;;32.70;35.00;;;;;;5079566;28;20380;-87
2022/06/01 12:53:39;;;;;;;0.80;0.80;;;29.70;35.70;;;;;;5058632;28;20541;-88
2022/06/01 12:56:09;;;;;;;0.80;0.80;;;27.60;41.70;;;;;;5057890;28;20029;-89
2022/06/01 12:58:36;;;;;;;1.80;1.02;;;26.40;43.90;;;;;;5048477;28;20032;-88
2022/06/01 13:01:03;;;;;;;1.67;1.08;;;25.10;44.80;;;;;;5048305;28;20017;-88
2022/06/01 13:03:32;;;;;;;2.05;1.20;;;24.40;46.90;;;;;;5048624;28;20025;-88
2022/06/01 13:06:00;;;;;;;6.85;1.23;;;23.90;49.00;;;;;;5047993;28;20025;-88
2022/06/01 13:08:37;;;;;;;1.77;1.27;;;23.40;49.50;;;;;;5049487;28;20036;-89
2022/06/01 13:11:25;;;;;;;2.25;1.00;;;22.70;52.50;;;;;;5043820;28;20095;-88
2022/06/01 13:13:51;;;;;;;1.45;1.08;;;22.60;54.30;;;;;;5042620;28;20048;-87
2022/06/01 13:16:19;;;;;;;2.60;1.08;;;22.20;53.80;;;;;;5047609;28;20083;-87
2022/06/01 13:18:46;;;;;;;3.75;1.60;;;21.40;56.10;;;;;;5058772;28;20025;-87
2022/06/01 13:21:24;;;;;;;2.55;1.50;;;21.10;57.90;;;;;;5049481;28;20032;-87
2022/06/01 13:24:04;;;;;;;2.25;1.63;;;20.00;64.20;;;;;;5054652;28;20096;-87
2022/06/01 13:26:52;;;;;;;3.88;1.60;;;19.50;72.30;;;;;;5042178;28;20032;-87
2022/06/01 13:29:22;;;;;;;2.70;1.45;;;19.00;74.20;;;;;;5047802;28;20024;-86
2022/06/01 13:31:50;;;;;;;1.90;1.42;;;18.40;76.70;;;;;;5055340;28;20031;-89
2022/06/01 14:33:50;;;;;;;2.30;1.17;;;26.80;67.40;;;;;;5485227;22;20041;-92
2022/06/01 14:36:15;;;;;;;0.75;0.70;;;29.00;59.70;;;;;;5045363;28;20068;-89
2022/06/01 14:38:41;;;;;;;1.83;0.82;;;30.50;51.70;;;;;;5050714;28;20747;-90
2022/06/01 14:41:15;;;;;;;0.85;0.50;;;30.80;51.10;;;;;;5037829;28;20082;-90
2022/06/01 14:43:41;;;;;;;1.10;0.88;;;30.90;46.20;;;;;;5020497;28;20079;-92
2022/06/01 14:46:08;;;;;;;2.67;0.70;;;31.70;44.00;;;;;;5023754;28;20029;-87
2022/06/01 14:48:35;;;;;;;0.65;0.60;;;29.90;48.10;;;;;;5041267;28;20491;-91
2022/06/01 14:51:06;;;;;;;2.30;0.60;;;30.30;47.60;;;;;;5027157;28;20163;-87
2022/06/01 14:53:33;;;;;;;;;;;30.90;46.70;;;;;;5018397;28;20021;-90
2022/06/01 14:55:59;;;;;;;0.80;0.80;;;30.70;42.90;;;;;;5037894;28;19991;-89
2022/06/01 14:58:25;;;;;;;2.35;0.88;;;29.50;43.00;;;;;;5041635;28;20057;-90
2022/06/01 15:00:51;;;;;;;1.08;0.90;;;27.50;49.80;;;;;;5011232;28;20492;-89
2022/06/01 15:03:28;;;;;;;3.30;1.42;;;25.70;53.60;;;;;;5044243;28;20025;-89
2022/06/01 15:05:54;;;;;;;1.30;1.10;;;23.90;59.40;;;;;;5044524;28;20018;-87
2022/06/01 15:08:20;;;;;;;1.38;1.27;;;22.60;63.70;;;;;;5046433;28;20444;-88
2022/06/01 15:10:46;;;;;;;2.95;1.20;;;22.10;68.20;;;;;;5041613;28;20014;-89
2022/06/01 15:13:12;;;;;;;2.80;1.50;;;21.10;69.70;;;;;;5042690;28;20398;-91
2022/06/01 15:15:38;;;;;;;2.80;0.90;;;20.70;75.10;;;;;;5046277;28;20767;-91
2022/06/01 15:18:04;;;;;;;1.58;1.05;;;20.40;78.20;;;;;;5034207;28;20059;-91
2022/06/01 15:20:31;;;;;;;2.53;1.67;;;19.80;82.20;;;;;;5026062;28;20421;-87
2022/06/01 15:22:56;;;;;;;2.50;1.50;;;19.10;85.40;;;;;;5021784;28;20129;-89
2022/06/01 15:25:22;;;;;;;4.30;1.60;;;18.90;98.50;;;;;;5048224;28;20547;-91
2022/06/01 15:27:48;;;;;;;1.20;1.10;;;18.50;99.90;;;;;;5043140;28;20056;-86
2022/06/01 16:32:35;;;;;;;2.13;0.70;;;18.60;90.50;;;;;;6105246;23;20004;-87
2022/06/01 16:35:03;;;;;;;1.02;0.50;;;18.90;87.20;;;;;;5041636;28;20032;-90
2022/06/01 16:37:29;;;;;;;1.85;0.80;;;19.50;81.20;;;;;;5046717;28;20032;-85
2022/06/01 16:39:55;;;;;;;0.68;0.68;;;20.00;78.30;;;;;;5060250;28;20025;-89
2022/06/01 16:42:21;;;;;;;0.93;0.68;;;20.30;77.40;;;;;;5045496;28;20037;-89
2022/06/01 16:44:49;;;;;;;0.70;0.70;;;20.30;71.70;;;;;;5059538;28;20029;-87
2022/06/01 16:47:15;;;;;;;0.80;0.80;;;20.20;71.50;;;;;;5067061;28;20028;-89
2022/06/01 16:49:42;;;;;;;0.95;0.50;;;19.90;71.00;;;;;;5063438;28;20074;-87
2022/06/01 16:52:08;;;;;;;0.60;0.60;;;19.70;71.20;;;;;;5061975;28;20029;-85
2022/06/01 16:54:35;;;;;;;0.65;0.65;;;19.40;72.80;;;;;;5054566;28;20024;-87
2022/06/01 16:57:02;;;;;;;1.00;0.77;;;19.30;77.10;;;;;;5065484;28;20050;-86
2022/06/01 16:59:31;;;;;;;1.67;0.60;;;19.40;77.00;;;;;;5062837;28;20035;-85
2022/06/01 17:01:57;;;;;;;1.63;0.93;;;19.30;82.50;;;;;;5050957;28;20496;-87
2022/06/01 17:04:23;;;;;;;1.35;1.08;;;19.40;74.50;;;;;;5066007;28;20067;-88
2022/06/01 17:06:49;;;;;;;2.38;1.67;;;19.40;80.00;;;;;;5050753;28;20093;-88
2022/06/01 17:09:15;;;;;;;0.98;0.65;;;19.20;78.50;;;;;;5062005;28;20059;-86
2022/06/01 17:11:42;;;;;;;2.05;0.90;;;18.90;82.30;;;;;;5068649;28;20025;-90
2022/06/01 17:14:08;;;;;;;1.45;0.90;;;18.50;85.60;;;;;;5055969;28;20045;-88
2022/06/01 17:16:38;;;;;;;2.03;1.00;;;18.20;88.20;;;;;;5063174;28;20559;-88
2022/06/01 17:19:07;;;;;;;3.20;1.33;;;17.90;90.10;;;;;;5063396;28;20013;-85
2022/06/01 17:21:36;;;;;;;2.97;1.08;;;17.60;93.10;;;;;;5054773;28;20024;-84
2022/06/01 17:24:02;;;;;;;1.20;1.10;;;17.40;93.70;;;;;;5054610;28;20023;-79
2022/06/01 17:26:31;;;;;;;2.05;1.40;;;17.20;96.10;;;;;;5064957;28;20393;-86
2022/06/01 17:29:00;;;;;;;1.40;1.30;;;17.10;97.30;;;;;;5070035;28;20777;-88
2022/06/01 17:31:26;;;;;;;2.10;1.33;;;16.90;96.40;;;;;;5079480;28;20013;-88
2022/06/01 18:33:26;;;;;;;1.00;0.98;;;16.30;99.90;;;;;;5784295;22;20075;-91
2022/06/01 18:35:51;;;;;;;1.83;1.15;;;16.10;99.90;;;;;;5015548;28;20029;-90
2022/06/01 18:38:18;;;;;;;1.40;1.20;;;16.00;99.90;;;;;;5013262;28;20509;-87
2022/06/01 18:40:46;;;;;;;1.10;1.00;;;15.90;99.90;;;;;;5020525;28;20099;-88
2022/06/01 18:43:12;;;;;;;3.03;1.20;;;15.80;99.90;;;;;;5015311;28;20040;-89
2022/06/01 18:45:38;;;;;;;1.83;0.90;;;15.80;99.90;;;;;;5020908;28;20497;-90
2022/06/01 18:48:04;;;;;;;0.85;0.85;;;15.70;99.90;;;;;;5038268;28;20029;-89
2022/06/01 18:50:32;;;;;;;1.60;0.90;;;15.70;99.90;;;;;;5042786;28;20025;-88
2022/06/01 18:53:00;;;;;;;1.23;1.10;;;15.60;99.90;;;;;;5027072;28;20103;-89
2022/06/01 18:55:26;;;;;;;1.88;0.90;;;15.50;99.90;;;;;;5023229;28;20024;-88
2022/06/01 18:57:53;;;;;;;1.67;0.90;;;15.50;99.90;;;;;;5011803;28;20406;-89
2022/06/01 19:03:03;;;;;;;0.88;0.88;;;15.40;99.90;;;;;;5045297;28;20041;-87
2022/06/01 19:05:30;;;;;;;3.53;1.10;;;15.30;99.90;;;;;;5020721;28;20026;-87
2022/06/01 19:07:57;;;;;;;1.27;1.17;;;15.40;99.90;;;;;;5017878;28;20104;-88
2022/06/01 19:10:24;;;;;;;2.17;1.25;;;15.20;99.90;;;;;;5013485;28;20025;-85
2022/06/01 19:12:51;;;;;;;1.13;0.93;;;15.10;99.90;;;;;;5029406;28;20104;-85
2022/06/01 19:15:18;;;;;;;1.80;1.10;;;14.90;99.90;;;;;;5011351;28;20140;-85
2022/06/01 19:17:44;;;;;;;1.67;0.95;;;14.80;99.90;;;;;;5033895;28;20048;-87
2022/06/01 19:20:10;;;;;;;1.90;1.10;;;14.70;99.90;;;;;;5018849;28;20482;-90
2022/06/01 19:22:36;;;;;;;1.95;1.77;;;14.50;99.90;;;;;;5028906;28;20068;-87
2022/06/01 19:25:04;;;;;;;2.80;1.23;;;14.30;99.90;;;;;;5016651;28;20610;-85
2022/06/01 19:27:56;;;;;;;1.55;1.40;;;14.20;99.90;;;;;;5010273;28;20021;-86
2022/06/01 19:30:24;;;;;;;1.40;1.30;;;14.00;99.90;;;;;;5007032;28;20044;-87
2022/06/01 20:34:09;;;;;;;3.78;2.25;;;11.00;99.90;;;;;;5410747;23;20399;-90
2022/06/01 20:36:38;;;;;;;2.97;2.35;;;10.90;99.90;;;;;;4972271;28;20038;-92
2022/06/01 20:39:04;;;;;;;4.68;2.75;;;10.90;99.90;;;;;;4971916;28;20027;-90
2022/06/01 20:41:31;;;;;;;2.90;2.35;;;10.80;99.90;;;;;;4973044;28;20019;-90
2022/06/01 20:43:57;;;;;;;3.33;2.10;;;10.80;99.90;;;;;;4982947;28;20018;-91
2022/06/01 20:46:25;;;;;;;4.20;2.58;;;10.70;99.90;;;;;;4992033;28;20026;-92
2022/06/01 20:48:52;;;;;;;3.10;2.03;;;10.60;99.90;;;;;;4993588;28;20534;-89
2022/06/01 20:51:18;;;;;;;3.28;2.40;;;10.50;99.90;;;;;;4984838;28;20023;-91
2022/06/01 20:53:44;;;;;;;3.65;2.45;;;10.40;99.90;;;;;;4992995;28;20360;-92
2022/06/01 20:56:11;;;;;;;3.78;2.80;;;10.30;99.90;;;;;;4993003;28;20102;-91
2022/06/01 20:58:37;;;;;;;3.45;2.33;;;10.20;99.90;;;;;;4992710;28;20034;-91
2022/06/01 21:01:03;;;;;;;3.63;2.70;;;10.10;99.90;;;;;;4992375;28;20152;-90
2022/06/01 21:03:29;;;;;;;3.45;2.10;;;10.10;99.90;;;;;;4985604;28;20068;-90
2022/06/01 21:05:54;;;;;;;3.67;2.40;;;10.10;99.90;;;;;;4989631;28;20018;-91
2022/06/01 21:08:20;;;;;;;2.75;2.08;;;10.00;99.90;;;;;;4992522;28;20131;-89
2022/06/01 21:10:46;;;;;;;3.20;2.15;;;10.00;99.90;;;;;;4995846;28;20456;-90
2022/06/01 21:13:11;;;;;;;4.50;2.20;;;9.90;99.90;;;;;;4994919;28;20040;-92
2022/06/01 21:15:38;;;;;;;3.67;2.00;;;9.90;99.90;;;;;;4993371;28;20022;-92
2022/06/01 21:18:04;;;;;;;2.60;1.95;;;9.70;99.90;;;;;;4996379;28;20033;-95
2022/06/01 21:20:30;;;;;;;4.28;2.92;;;9.60;99.90;;;;;;4996797;28;20026;-93
2022/06/01 21:22:56;;;;;;;2.78;2.08;;;9.50;99.90;;;;;;5003305;28;20030;-93
2022/06/01 21:25:22;;;;;;;7.18;3.38;;;9.40;99.90;;;;;;4998710;28;20809;-88
2022/06/01 21:27:52;;;;;;;2.97;2.17;;;9.30;99.90;;;;;;4992050;28;20022;-87
2022/06/01 21:30:20;;;;;;;2.58;2.38;;;9.30;99.90;;;;;;4991730;28;20026;-86
2022/06/01 23:35:13;;;;;;;2.78;1.92;;;7.10;99.90;;;;;;5122505;23;20140;-82
2022/06/01 23:37:42;;;;;;;3.72;2.35;;;7.00;99.90;;;;;;5002511;28;20560;-81
2022/06/01 23:40:26;;;;;;;3.95;2.80;;;6.90;99.90;;;;;;5024226;28;20022;-81
2022/06/01 23:43:25;;;;;;;6.97;3.15;;;6.90;99.90;;;;;;5018454;28;20030;-82
2022/06/01 23:46:19;;;;;;;3.45;2.63;;;7.00;99.90;;;;;;5000541;28;20672;-81
2022/06/01 23:49:07;;;;;;;7.65;2.92;;;7.00;99.90;;;;;;5000853;28;20029;-81
2022/06/01 23:51:39;;;;;;;3.53;2.67;;;7.00;99.90;;;;;;5002362;28;20057;-81
2022/06/01 23:54:32;;;;;;;3.92;3.30;;;6.90;99.90;;;;;;5002005;28;20088;-82
2022/06/01 23:57:17;;;;;;;4.22;2.65;;;6.80;99.90;;;;;;5002132;28;20068;-81
